createdAt,value
2023-10-27T00:00:59.267Z,1.40
2023-10-27T00:03:26.451Z,1.30
2023-10-27T00:05:53.556Z,1.40
2023-10-27T00:08:20.525Z,1.40
2023-10-27T00:10:47.667Z,1.50
2023-10-27T00:13:14.803Z,1.40
2023-10-27T00:15:41.960Z,1.40
2023-10-27T00:18:09.018Z,1.40
2023-10-27T00:20:36.000Z,1.40
2023-10-27T00:23:03.021Z,1.40
2023-10-27T00:25:30.129Z,1.30
2023-10-27T00:27:57.340Z,1.30
2023-10-27T00:30:24.471Z,1.30
2023-10-27T00:32:51.730Z,1.30
2023-10-27T00:35:18.978Z,1.30
2023-10-27T00:37:46.023Z,1.20
2023-10-27T00:40:14.159Z,1.30
2023-10-27T00:42:42.940Z,1.30
2023-10-27T00:45:10.073Z,1.30
2023-10-27T00:47:37.292Z,1.40
2023-10-27T00:50:04.751Z,1.40
2023-10-27T00:52:32.312Z,1.50
2023-10-27T00:54:59.674Z,1.50
2023-10-27T00:57:28.270Z,1.50
2023-10-27T00:59:55.780Z,1.50
2023-10-27T01:02:23.215Z,1.50
2023-10-27T01:04:51.038Z,1.40
2023-10-27T01:07:18.286Z,1.40
2023-10-27T01:09:45.989Z,1.40
2023-10-27T01:12:13.339Z,1.40
2023-10-27T01:14:40.303Z,1.40
2023-10-27T01:17:07.324Z,1.30
2023-10-27T01:19:37.137Z,1.30
2023-10-27T01:22:05.109Z,1.30
2023-10-27T01:24:32.393Z,1.40
2023-10-27T01:27:00.592Z,1.50
2023-10-27T01:29:29.887Z,1.50
2023-10-27T01:31:57.156Z,1.40
2023-10-27T01:34:24.346Z,1.40
2023-10-27T01:36:51.469Z,1.40
2023-10-27T01:39:20.350Z,1.40
2023-10-27T01:41:47.440Z,1.50
2023-10-27T01:44:14.582Z,1.50
2023-10-27T01:46:41.771Z,1.50
2023-10-27T01:49:08.929Z,1.60
2023-10-27T01:51:36.081Z,1.60
2023-10-27T01:54:03.063Z,1.60
2023-10-27T01:56:31.808Z,1.50
2023-10-27T01:58:58.919Z,1.40
2023-10-27T02:01:26.051Z,1.40
2023-10-27T02:03:53.183Z,1.40
2023-10-27T02:06:24.350Z,1.50
2023-10-27T02:08:51.836Z,1.40
2023-10-27T02:11:19.202Z,1.40
2023-10-27T02:13:46.342Z,1.40
2023-10-27T02:16:13.503Z,1.30
2023-10-27T02:18:40.635Z,1.30
2023-10-27T02:21:07.671Z,1.30
2023-10-27T02:23:34.759Z,1.30
2023-10-27T02:26:01.951Z,1.30
2023-10-27T02:28:29.185Z,1.30
2023-10-27T02:30:56.269Z,1.30
2023-10-27T02:33:23.445Z,1.30
2023-10-27T02:35:50.965Z,1.30
2023-10-27T02:38:17.989Z,1.30
2023-10-27T02:40:45.554Z,1.40
2023-10-27T02:43:13.034Z,1.30
2023-10-27T02:45:41.980Z,1.30
2023-10-27T02:48:09.317Z,1.30
2023-10-27T02:50:36.653Z,1.40
2023-10-27T02:53:03.803Z,1.40
2023-10-27T02:55:31.057Z,1.30
2023-10-27T02:57:58.651Z,1.30
2023-10-27T03:00:26.109Z,1.30
2023-10-27T03:02:53.321Z,1.40
2023-10-27T03:05:20.512Z,1.40
2023-10-27T03:07:47.702Z,1.50
2023-10-27T03:10:15.319Z,1.50
2023-10-27T03:12:42.349Z,1.50
2023-10-27T03:15:10.392Z,1.60
2023-10-27T03:17:37.579Z,1.60
2023-10-27T03:20:06.293Z,1.60
2023-10-27T03:22:34.232Z,1.50
2023-10-27T03:25:02.553Z,1.40
2023-10-27T03:27:30.167Z,1.40
2023-10-27T03:29:57.156Z,1.30
2023-10-27T03:32:24.471Z,1.30
2023-10-27T03:34:51.780Z,1.30
2023-10-27T03:37:18.802Z,1.20
2023-10-27T03:39:45.998Z,1.30
2023-10-27T03:42:13.182Z,1.30
2023-10-27T03:44:41.852Z,1.30
2023-10-27T03:47:08.947Z,1.20
2023-10-27T03:49:36.164Z,1.30
2023-10-27T03:52:03.421Z,1.30
2023-10-27T03:54:30.682Z,1.30
2023-10-27T03:56:57.692Z,1.30
2023-10-27T03:59:24.866Z,1.30
2023-10-27T04:01:51.930Z,1.30
2023-10-27T04:04:19.051Z,1.30
2023-10-27T04:06:46.455Z,1.30
2023-10-27T04:09:13.531Z,1.40
2023-10-27T04:11:40.553Z,1.30
2023-10-27T04:14:07.656Z,1.40
2023-10-27T04:16:35.768Z,1.40
2023-10-27T04:19:02.932Z,1.50
2023-10-27T04:21:30.473Z,1.50
2023-10-27T04:23:57.872Z,1.50
2023-10-27T04:26:24.824Z,1.50
2023-10-27T04:28:52.007Z,1.40
2023-10-27T04:31:19.481Z,1.40
2023-10-27T04:33:49.580Z,1.40
2023-10-27T04:36:16.706Z,1.40
2023-10-27T04:38:44.317Z,1.30
2023-10-27T04:41:11.886Z,1.30
2023-10-27T04:43:38.850Z,1.30
2023-10-27T04:46:05.901Z,1.40
2023-10-27T04:48:32.997Z,1.40
2023-10-27T04:51:05.885Z,1.30
2023-10-27T04:53:32.906Z,1.40
2023-10-27T04:55:59.907Z,1.30
2023-10-27T04:58:27.102Z,1.30
2023-10-27T05:00:54.118Z,1.20
2023-10-27T05:03:21.205Z,1.20
2023-10-27T05:05:48.196Z,1.30
2023-10-27T05:08:15.482Z,1.30
2023-10-27T05:10:43.339Z,1.30
2023-10-27T05:13:10.565Z,1.30
2023-10-27T05:15:39.667Z,1.30
2023-10-27T05:18:07.111Z,1.30
2023-10-27T05:20:38.482Z,1.20
2023-10-27T05:23:05.753Z,1.20
2023-10-27T05:25:32.824Z,1.20
2023-10-27T05:27:59.851Z,1.20
2023-10-27T05:30:26.841Z,1.10
2023-10-27T05:33:00.866Z,1.10
2023-10-27T05:35:28.278Z,1.10
2023-10-27T05:38:04.726Z,1.10
2023-10-27T05:40:33.668Z,1.20
2023-10-27T05:43:02.170Z,1.30
2023-10-27T05:45:34.423Z,1.40
2023-10-27T05:48:04.953Z,1.40
2023-10-27T05:50:32.389Z,1.40
2023-10-27T05:52:59.561Z,1.40
2023-10-27T05:55:27.334Z,1.40
2023-10-27T05:57:54.481Z,1.50
2023-10-27T06:00:22.992Z,1.50
2023-10-27T06:02:54.035Z,1.50
2023-10-27T06:05:26.011Z,1.50
2023-10-27T06:07:53.126Z,1.50
2023-10-27T06:10:20.264Z,1.40
2023-10-27T06:12:47.343Z,1.40
2023-10-27T06:15:14.504Z,1.40
2023-10-27T06:17:41.610Z,1.40
2023-10-27T06:20:18.016Z,1.40
2023-10-27T06:22:46.148Z,1.50
2023-10-27T06:25:13.283Z,1.50
2023-10-27T06:27:40.341Z,1.50
2023-10-27T06:30:08.138Z,1.70
2023-10-27T06:32:35.504Z,1.70
2023-10-27T06:35:02.793Z,1.70
2023-10-27T06:37:29.852Z,1.80
2023-10-27T06:40:00.551Z,1.80
2023-10-27T06:42:27.936Z,1.80
2023-10-27T06:44:55.134Z,1.80
2023-10-27T06:47:23.720Z,1.80
2023-10-27T06:49:51.216Z,1.70
2023-10-27T06:52:18.657Z,1.60
2023-10-27T06:54:47.630Z,1.70
2023-10-27T06:57:14.784Z,1.70
2023-10-27T06:59:43.868Z,1.80
2023-10-27T07:02:11.100Z,1.90
2023-10-27T07:04:38.925Z,2.00
2023-10-27T07:07:14.523Z,1.90
2023-10-27T07:09:48.874Z,1.90
2023-10-27T07:12:15.872Z,1.90
2023-10-27T07:14:43.063Z,1.90
2023-10-27T07:17:10.203Z,2.00
2023-10-27T07:19:37.272Z,2.00
2023-10-27T07:22:04.979Z,2.00
2023-10-27T07:24:32.373Z,2.00
2023-10-27T07:26:59.327Z,2.00
2023-10-27T07:29:27.293Z,2.00
2023-10-27T07:31:55.280Z,1.90
2023-10-27T07:34:22.549Z,1.80
2023-10-27T07:36:49.691Z,1.80
2023-10-27T07:39:16.917Z,1.80
2023-10-27T07:41:43.874Z,1.80
2023-10-27T07:44:11.079Z,1.80
2023-10-27T07:46:39.345Z,1.90
2023-10-27T07:49:06.422Z,2.00
2023-10-27T07:51:33.884Z,2.00
2023-10-27T07:54:00.919Z,2.10
2023-10-27T07:56:28.051Z,2.10
2023-10-27T07:58:55.172Z,2.10
2023-10-27T08:01:22.232Z,2.10
2023-10-27T08:03:49.403Z,2.10
2023-10-27T08:06:16.591Z,2.00
2023-10-27T08:08:43.675Z,2.00
2023-10-27T08:11:15.661Z,2.00
2023-10-27T08:13:42.708Z,2.00
2023-10-27T08:16:09.752Z,2.00
2023-10-27T08:18:37.892Z,2.00
2023-10-27T08:21:05.638Z,2.00
2023-10-27T08:23:32.816Z,2.00
2023-10-27T08:25:59.814Z,2.00
2023-10-27T08:28:28.399Z,2.00
2023-10-27T08:30:57.880Z,2.00
2023-10-27T08:33:25.866Z,2.10
2023-10-27T08:35:53.056Z,2.20
2023-10-27T08:38:20.240Z,2.40
2023-10-27T08:40:47.420Z,2.40
2023-10-27T08:43:15.259Z,2.40
2023-10-27T08:45:43.149Z,2.50
2023-10-27T08:48:13.289Z,2.50
2023-10-27T08:50:42.011Z,2.40
2023-10-27T08:53:15.972Z,2.40
2023-10-27T08:55:43.767Z,2.50
2023-10-27T08:58:10.998Z,2.40
2023-10-27T09:00:38.209Z,2.30
2023-10-27T09:03:15.106Z,2.40
2023-10-27T09:05:42.155Z,2.40
2023-10-27T09:08:09.518Z,2.60
2023-10-27T09:10:37.788Z,2.50
2023-10-27T09:13:07.944Z,2.40
2023-10-27T09:15:41.701Z,2.50
2023-10-27T09:18:10.159Z,2.60
2023-10-27T09:20:46.892Z,2.70
2023-10-27T09:23:14.000Z,2.70
2023-10-27T09:25:42.072Z,2.60
2023-10-27T09:28:10.813Z,2.70
2023-10-27T09:30:41.938Z,2.70
2023-10-27T09:33:14.170Z,2.60
2023-10-27T09:35:41.901Z,2.60
2023-10-27T09:38:09.675Z,2.60
2023-10-27T09:40:39.060Z,2.60
2023-10-27T09:43:08.715Z,2.60
2023-10-27T09:45:36.778Z,2.70
2023-10-27T09:48:04.722Z,2.60
2023-10-27T09:50:32.295Z,2.60
2023-10-27T09:53:00.971Z,2.50
2023-10-27T09:55:28.805Z,2.60
2023-10-27T09:57:56.375Z,2.60
2023-10-27T10:00:28.663Z,2.70
2023-10-27T10:02:56.903Z,2.70
2023-10-27T10:05:24.918Z,2.60
2023-10-27T10:07:58.521Z,2.50
2023-10-27T10:10:35.956Z,2.60
2023-10-27T10:13:03.893Z,2.70
2023-10-27T10:15:55.329Z,2.70
2023-10-27T10:18:22.294Z,2.70
2023-10-27T10:20:49.205Z,2.70
2023-10-27T10:23:19.901Z,2.80
2023-10-27T10:25:57.225Z,2.80
2023-10-27T10:28:25.476Z,2.80
2023-10-27T10:31:07.890Z,2.70
2023-10-27T10:33:38.477Z,2.60
2023-10-27T10:36:23.831Z,2.60
2023-10-27T10:38:57.216Z,2.60
2023-10-27T10:41:42.873Z,2.60
2023-10-27T10:44:14.553Z,2.60
2023-10-27T10:46:42.638Z,2.60
2023-10-27T10:49:11.919Z,2.70
2023-10-27T10:51:39.089Z,2.70
2023-10-27T10:54:15.107Z,2.70
2023-10-27T10:56:42.077Z,2.60
2023-10-27T10:59:09.507Z,2.60
2023-10-27T11:01:36.558Z,2.60
2023-10-27T11:04:03.845Z,2.50
2023-10-27T11:06:31.096Z,2.50
2023-10-27T11:08:58.343Z,2.40
2023-10-27T11:11:35.108Z,2.50
2023-10-27T11:14:13.304Z,2.50
2023-10-27T11:16:40.409Z,2.50
2023-10-27T11:19:15.421Z,2.50
2023-10-27T11:21:42.691Z,2.60
2023-10-27T11:24:09.951Z,2.60
2023-10-27T11:26:43.438Z,2.70
2023-10-27T11:29:10.658Z,2.70
2023-10-27T11:31:41.777Z,2.80
2023-10-27T11:34:09.552Z,2.90
2023-10-27T11:36:37.524Z,3.00
2023-10-27T11:39:18.817Z,3.10
2023-10-27T11:41:47.601Z,3.20
2023-10-27T11:44:20.758Z,3.10
2023-10-27T11:46:52.273Z,3.20
2023-10-27T11:49:19.921Z,3.20
2023-10-27T11:51:58.951Z,3.20
2023-10-27T11:54:26.544Z,3.20
2023-10-27T11:56:53.671Z,3.20
2023-10-27T11:59:21.678Z,3.00
2023-10-27T12:01:48.897Z,2.90
2023-10-27T12:04:16.149Z,2.80
2023-10-27T12:06:43.893Z,2.70
2023-10-27T12:09:13.136Z,2.60
2023-10-27T12:11:42.519Z,2.70
2023-10-27T12:14:12.221Z,2.70
2023-10-27T12:16:39.491Z,2.60
2023-10-27T12:19:11.084Z,2.70
2023-10-27T12:21:40.167Z,2.70
2023-10-27T12:24:07.454Z,2.80
2023-10-27T12:26:34.533Z,2.80
2023-10-27T12:29:01.518Z,2.80
2023-10-27T12:31:28.652Z,2.80
2023-10-27T12:33:56.008Z,2.70
2023-10-27T12:36:24.267Z,2.70
2023-10-27T12:38:51.495Z,2.80
2023-10-27T12:41:19.986Z,2.80
2023-10-27T12:43:47.031Z,2.70
2023-10-27T12:46:14.049Z,2.70
2023-10-27T12:48:41.065Z,2.70
2023-10-27T12:51:08.344Z,2.70
2023-10-27T12:53:35.497Z,2.50
2023-10-27T12:56:02.608Z,2.50
2023-10-27T12:58:30.399Z,2.50
2023-10-27T13:00:57.596Z,2.50
2023-10-27T13:03:24.720Z,2.60
2023-10-27T13:05:51.780Z,2.70
2023-10-27T13:08:19.003Z,2.70
2023-10-27T13:10:46.107Z,2.80
2023-10-27T13:13:14.735Z,2.70
2023-10-27T13:15:41.979Z,2.80
2023-10-27T13:18:09.183Z,2.80
2023-10-27T13:20:36.313Z,2.70
2023-10-27T13:23:04.415Z,2.70
2023-10-27T13:25:31.807Z,2.70
2023-10-27T13:27:59.276Z,2.60
2023-10-27T13:30:26.812Z,2.50
2023-10-27T13:32:54.186Z,2.50
2023-10-27T13:35:22.146Z,2.60
2023-10-27T13:37:49.745Z,2.60
2023-10-27T13:40:20.173Z,2.60
2023-10-27T13:42:47.870Z,2.60
2023-10-27T13:45:15.056Z,2.60
2023-10-27T13:47:42.246Z,2.60
2023-10-27T13:50:09.633Z,2.60
2023-10-27T13:52:36.714Z,2.60
2023-10-27T13:55:05.218Z,2.60
2023-10-27T13:57:32.198Z,2.60
2023-10-27T13:59:59.619Z,2.60
2023-10-27T14:02:26.584Z,2.50
2023-10-27T14:04:54.079Z,2.50
2023-10-27T14:07:21.185Z,2.50
2023-10-27T14:09:49.235Z,2.50
2023-10-27T14:12:16.285Z,2.50
2023-10-27T14:14:43.597Z,2.50
2023-10-27T14:17:11.150Z,2.40
2023-10-27T14:19:38.478Z,2.30
2023-10-27T14:22:05.634Z,2.30
2023-10-27T14:24:34.417Z,2.20
2023-10-27T14:27:01.693Z,2.20
2023-10-27T14:29:28.633Z,2.30
2023-10-27T14:31:55.818Z,2.30
2023-10-27T14:34:22.785Z,2.40
2023-10-27T14:36:50.830Z,2.40
2023-10-27T14:39:17.785Z,2.40
2023-10-27T14:41:44.999Z,2.40
2023-10-27T14:44:13.053Z,2.40
2023-10-27T14:46:40.316Z,2.30
2023-10-27T14:49:07.853Z,2.30
2023-10-27T14:51:35.950Z,2.30
2023-10-27T14:54:03.345Z,2.20
2023-10-27T14:56:30.580Z,2.20
2023-10-27T14:58:57.559Z,2.20
2023-10-27T15:01:27.530Z,2.30
2023-10-27T15:03:54.603Z,2.40
2023-10-27T15:06:22.400Z,2.30
2023-10-27T15:08:49.419Z,2.40
2023-10-27T15:11:16.553Z,2.30
2023-10-27T15:13:43.834Z,2.30
2023-10-27T15:16:12.209Z,2.30
2023-10-27T15:18:39.859Z,2.30
2023-10-27T15:21:08.180Z,2.30
2023-10-27T15:23:35.200Z,2.30
2023-10-27T15:26:06.223Z,2.40
2023-10-27T15:28:34.147Z,2.40
2023-10-27T15:31:05.482Z,2.30
2023-10-27T15:36:19.920Z,2.40
2023-10-27T15:38:46.991Z,2.30
2023-10-27T15:39:08.244Z,2.40
2023-10-27T15:41:25.212Z,2.30
2023-10-27T15:43:52.869Z,2.30
2023-10-27T15:46:19.960Z,2.20
2023-10-27T15:48:47.000Z,2.20
2023-10-27T15:51:15.716Z,2.10
2023-10-27T15:53:42.903Z,2.10
2023-10-27T15:56:12.064Z,2.10
2023-10-27T15:58:40.599Z,2.10
2023-10-27T16:01:09.002Z,2.00
2023-10-27T16:03:36.219Z,2.00
2023-10-27T16:06:03.523Z,2.00
2023-10-27T16:08:30.796Z,1.90
2023-10-27T16:10:58.175Z,1.90
2023-10-27T16:13:25.204Z,1.90
2023-10-27T16:15:52.417Z,1.90
2023-10-27T16:18:22.786Z,1.90
2023-10-27T16:20:49.960Z,1.80
2023-10-27T16:23:17.132Z,1.80
2023-10-27T16:25:44.147Z,1.80
2023-10-27T16:28:11.239Z,1.90
2023-10-27T16:30:39.129Z,1.90
2023-10-27T16:33:07.380Z,2.00
2023-10-27T16:35:34.855Z,2.00
2023-10-27T16:38:01.977Z,2.00
2023-10-27T16:40:30.276Z,2.00
2023-10-27T16:42:57.375Z,2.00
2023-10-27T16:45:24.353Z,2.00
2023-10-27T16:47:52.414Z,2.10
2023-10-27T16:50:21.946Z,2.00
2023-10-27T16:52:50.193Z,2.10
2023-10-27T16:55:17.356Z,2.00
2023-10-27T16:57:44.482Z,2.00
2023-10-27T17:00:12.230Z,2.10
2023-10-27T17:02:40.232Z,2.10
2023-10-27T17:05:11.686Z,2.10
2023-10-27T17:07:41.635Z,2.10
2023-10-27T17:10:09.337Z,2.10
2023-10-27T17:12:38.093Z,2.10
2023-10-27T17:15:05.673Z,2.00
2023-10-27T17:17:32.893Z,2.00
2023-10-27T17:20:09.571Z,2.00
2023-10-27T17:22:44.630Z,2.10
2023-10-27T17:25:12.125Z,2.10
2023-10-27T17:27:39.306Z,2.10
2023-10-27T17:30:07.290Z,2.10
2023-10-27T17:32:36.305Z,2.10
2023-10-27T17:35:03.505Z,2.00
2023-10-27T17:37:30.673Z,1.90
2023-10-27T17:39:57.605Z,1.90
2023-10-27T17:42:25.043Z,1.90
2023-10-27T17:44:52.430Z,1.90
2023-10-27T17:47:19.466Z,1.80
2023-10-27T17:49:47.061Z,1.80
2023-10-27T17:52:14.208Z,1.80
2023-10-27T17:54:42.224Z,1.90
2023-10-27T17:57:10.234Z,2.00
2023-10-27T17:59:38.928Z,2.00
2023-10-27T18:02:06.625Z,1.90
2023-10-27T18:04:33.814Z,2.00
2023-10-27T18:07:02.116Z,1.90
2023-10-27T18:09:29.112Z,1.80
2023-10-27T18:11:56.443Z,1.80
2023-10-27T18:14:25.945Z,1.70
2023-10-27T18:16:54.471Z,1.80
2023-10-27T18:19:21.653Z,1.90
2023-10-27T18:21:48.813Z,1.90
2023-10-27T18:24:15.800Z,1.90
2023-10-27T18:26:42.830Z,1.90
2023-10-27T18:29:10.257Z,1.80
2023-10-27T18:31:40.478Z,1.90
2023-10-27T18:34:07.612Z,1.90
2023-10-27T18:36:34.794Z,1.90
2023-10-27T18:39:01.942Z,2.00
2023-10-27T18:41:31.391Z,2.00
2023-10-27T18:43:58.724Z,2.00
2023-10-27T18:46:26.024Z,1.90
2023-10-27T18:48:53.267Z,2.00
2023-10-27T18:51:21.241Z,2.00
2023-10-27T18:53:48.398Z,2.10
2023-10-27T18:56:16.911Z,2.10
2023-10-27T18:58:46.940Z,2.10
2023-10-27T19:01:15.758Z,2.10
2023-10-27T19:03:44.017Z,2.10
2023-10-27T19:06:11.573Z,2.10
2023-10-27T19:08:38.729Z,2.10
2023-10-27T19:11:11.557Z,2.10
2023-10-27T19:13:40.566Z,2.10
2023-10-27T19:16:08.336Z,2.20
2023-10-27T19:18:36.578Z,2.20
2023-10-27T19:21:05.652Z,2.20
2023-10-27T19:23:33.137Z,2.20
2023-10-27T19:26:12.033Z,2.20
2023-10-27T19:28:39.350Z,2.20
2023-10-27T19:31:06.845Z,2.20
2023-10-27T19:33:34.249Z,2.20
2023-10-27T19:36:01.300Z,2.20
2023-10-27T19:38:28.699Z,2.20
2023-10-27T19:40:55.955Z,2.30
2023-10-27T19:43:23.069Z,2.30
2023-10-27T19:45:50.633Z,2.30
2023-10-27T19:48:17.930Z,2.30
2023-10-27T19:50:48.727Z,2.30
2023-10-27T19:53:16.188Z,2.30
2023-10-27T19:55:43.402Z,2.30
2023-10-27T19:58:13.349Z,2.30
2023-10-27T20:00:40.592Z,2.30
2023-10-27T20:03:11.248Z,2.30
2023-10-27T20:05:38.937Z,2.30
2023-10-27T20:08:08.438Z,2.30
2023-10-27T20:10:39.365Z,2.20
2023-10-27T20:13:12.916Z,2.20
2023-10-27T20:15:42.133Z,2.20
2023-10-27T20:18:12.153Z,2.20
2023-10-27T20:20:39.321Z,2.20
2023-10-27T20:23:06.475Z,2.20
2023-10-27T20:25:33.559Z,2.20
2023-10-27T20:28:02.375Z,2.20
2023-10-27T20:30:29.921Z,2.20
2023-10-27T20:32:57.570Z,2.10
2023-10-27T20:35:25.575Z,2.10
2023-10-27T20:37:53.255Z,2.10
2023-10-27T20:40:20.864Z,2.20
2023-10-27T20:42:49.799Z,2.10
2023-10-27T20:45:17.559Z,2.10
2023-10-27T20:47:49.063Z,2.10
2023-10-27T20:50:16.993Z,2.10
2023-10-27T20:52:44.521Z,2.10
2023-10-27T20:55:14.654Z,2.10
2023-10-27T20:57:41.878Z,2.10
2023-10-27T21:00:09.156Z,2.10
2023-10-27T21:02:36.144Z,2.00
2023-10-27T21:05:06.919Z,2.10
2023-10-27T21:07:34.454Z,2.10
2023-10-27T21:10:01.580Z,2.10
2023-10-27T21:12:28.638Z,2.00
2023-10-27T21:14:55.952Z,2.00
2023-10-27T21:17:22.982Z,2.00
2023-10-27T21:19:50.149Z,2.10
2023-10-27T21:22:20.426Z,2.10
2023-10-27T21:24:47.638Z,2.10
2023-10-27T21:27:14.821Z,2.10
2023-10-27T21:29:41.866Z,2.00
2023-10-27T21:32:09.339Z,2.00
2023-10-27T21:34:36.276Z,2.00
2023-10-27T21:37:03.393Z,2.00
2023-10-27T21:39:30.338Z,2.00
2023-10-27T21:41:57.340Z,2.00
2023-10-27T21:44:24.774Z,2.10
2023-10-27T21:46:52.399Z,2.10
2023-10-27T21:49:19.449Z,2.10
2023-10-27T21:51:46.423Z,2.10
2023-10-27T21:54:17.286Z,2.10
2023-10-27T21:56:45.570Z,2.10
2023-10-27T21:59:13.064Z,2.10
2023-10-27T22:01:42.550Z,2.00
2023-10-27T22:04:19.957Z,2.10
2023-10-27T22:06:47.929Z,2.00
2023-10-27T22:09:14.996Z,2.10
2023-10-27T22:11:42.105Z,2.00
2023-10-27T22:14:09.250Z,2.00
2023-10-27T22:16:36.358Z,2.00
2023-10-27T22:19:04.063Z,2.00
2023-10-27T22:21:31.156Z,2.00
2023-10-27T22:23:58.134Z,2.10
2023-10-27T22:26:26.271Z,2.10
2023-10-27T22:28:53.502Z,2.10
2023-10-27T22:31:21.745Z,2.10
2023-10-27T22:33:48.904Z,2.10
2023-10-27T22:36:15.913Z,2.10
2023-10-27T22:38:43.455Z,2.10
2023-10-27T22:41:12.469Z,2.00
2023-10-27T22:43:43.311Z,2.00
2023-10-27T22:46:10.784Z,2.00
2023-10-27T22:48:37.818Z,2.00
2023-10-27T22:51:08.899Z,2.00
2023-10-27T22:53:37.165Z,2.00
2023-10-27T22:56:08.420Z,2.00
2023-10-27T22:58:35.874Z,2.00
2023-10-27T23:01:04.213Z,2.00
2023-10-27T23:03:31.361Z,2.00
2023-10-27T23:06:11.702Z,2.00
2023-10-27T23:08:39.303Z,2.00
2023-10-27T23:11:08.092Z,2.00
2023-10-27T23:13:36.179Z,2.10
2023-10-27T23:16:06.514Z,2.10
2023-10-27T23:18:34.623Z,2.10
2023-10-27T23:21:10.693Z,2.10
2023-10-27T23:23:38.141Z,2.10
2023-10-27T23:26:07.547Z,2.00
2023-10-27T23:28:37.808Z,2.10
2023-10-27T23:31:05.572Z,2.00
2023-10-27T23:33:33.513Z,2.00
2023-10-27T23:36:01.544Z,2.00
2023-10-27T23:38:32.158Z,2.00
2023-10-27T23:41:00.200Z,2.00
2023-10-27T23:43:27.640Z,2.00
2023-10-27T23:45:57.661Z,2.10
2023-10-27T23:48:28.717Z,2.10
2023-10-27T23:50:56.333Z,2.10
2023-10-27T23:53:26.255Z,2.10
2023-10-27T23:55:53.486Z,2.10
2023-10-27T23:58:20.708Z,2.10
